Time;durP1;ratioP1;P1;durP2;ratioP2;P2;SDS_P1;SDS_P2;PMS_P1;PMS_P2;Temp;Humidity;BMP_temperature;BMP_pressure;BME280_temperature;BME280_humidity;BME280_pressure;Samples;Min_cycle;Max_cycle;Signal;HPM_P1;HPM_P2
2022/08/30 00:01:04;;;;;;;9.35;4.60;;;;;17.30;94428.00;;;;7393023;19;20519;-78
2022/08/30 00:03:46;;;;;;;9.52;4.78;;;;;17.20;94434.00;;;;7389596;19;20173;-78
2022/08/30 00:06:28;;;;;;;6.97;4.78;;;;;17.20;94438.00;;;;7393851;19;20501;-78
2022/08/30 00:09:02;;;;;;;5.45;4.78;;;;;17.20;94429.00;;;;7394844;19;20132;-78
2022/08/30 00:11:36;;;;;;;10.40;4.40;;;;;17.30;94435.00;;;;7392673;19;20145;-77
2022/08/30 00:14:05;;;;;;;6.28;4.55;;;;;17.10;94432.00;;;;7390889;19;20608;-78
2022/08/30 00:16:33;;;;;;;7.68;4.38;;;;;17.10;94434.00;;;;7391682;19;20129;-78
2022/08/30 00:19:07;;;;;;;5.07;4.00;;;;;17.00;94432.00;;;;7394041;19;20120;-78
2022/08/30 00:21:34;;;;;;;5.85;4.38;;;;;16.80;94433.00;;;;7390738;19;20182;-78
2022/08/30 00:24:03;;;;;;;4.80;3.92;;;;;16.80;94432.00;;;;7389129;19;20622;-79
2022/08/30 00:26:37;;;;;;;10.52;4.15;;;;;16.80;94432.00;;;;7390064;19;20173;-78
2022/08/30 00:29:05;;;;;;;4.78;4.10;;;;;16.60;94441.00;;;;7394326;19;20615;-78
2022/08/30 00:31:32;;;;;;;7.53;4.72;;;;;16.60;94440.00;;;;7389495;19;20953;-78
2022/08/30 00:34:06;;;;;;;7.22;4.47;;;;;16.60;94436.00;;;;7392021;19;20141;-77
2022/08/30 00:36:34;;;;;;;9.10;4.53;;;;;16.70;94441.00;;;;7393459;19;20132;-76
2022/08/30 00:39:02;;;;;;;8.25;4.50;;;;;16.50;94432.00;;;;7393714;19;20591;-78
2022/08/30 00:41:36;;;;;;;10.93;4.85;;;;;16.50;94437.00;;;;7388419;19;20134;-78
2022/08/30 00:44:03;;;;;;;7.00;4.25;;;;;16.50;94439.00;;;;7390500;19;20139;-77
2022/08/30 00:46:31;;;;;;;5.20;4.22;;;;;16.40;94434.00;;;;7391631;19;20133;-77
2022/08/30 00:49:07;;;;;;;5.57;3.97;;;;;16.40;94441.00;;;;7393319;19;20140;-77
2022/08/30 00:51:35;;;;;;;8.27;4.40;;;;;16.30;94434.00;;;;7391015;19;20863;-78
2022/08/30 00:54:03;;;;;;;7.68;4.03;;;;;16.40;94437.00;;;;7390801;19;20133;-77
2022/08/30 00:56:37;;;;;;;5.13;4.43;;;;;16.40;94434.00;;;;7391703;19;20144;-76
2022/08/30 00:59:06;;;;;;;10.73;4.65;;;;;16.40;94433.00;;;;7401661;19;20125;-77
2022/08/30 01:01:36;;;;;;;8.68;4.38;;;;;16.40;94438.00;;;;7395274;19;20160;-73
2022/08/30 01:04:12;;;;;;;8.00;4.20;;;;;16.30;94437.00;;;;7397181;19;20602;-74
2022/08/30 01:06:46;;;;;;;5.63;4.60;;;;;16.00;94446.00;;;;7397976;19;20588;-73
2022/08/30 01:09:21;;;;;;;7.25;4.72;;;;;15.90;94443.00;;;;7397654;19;20116;-74
2022/08/30 01:11:49;;;;;;;9.48;4.28;;;;;15.80;94445.00;;;;7394644;19;20216;-74
2022/08/30 01:14:17;;;;;;;6.90;4.25;;;;;15.90;94441.00;;;;7397766;19;20148;-73
2022/08/30 01:16:56;;;;;;;8.73;4.55;;;;;16.10;94429.00;;;;7399395;19;20152;-73
2022/08/30 01:19:37;;;;;;;7.43;4.60;;;;;16.30;94428.00;;;;7395483;19;20157;-73
2022/08/30 01:22:18;;;;;;;6.53;4.82;;;;;16.10;94438.00;;;;7396481;19;20160;-73
2022/08/30 01:24:47;;;;;;;6.95;4.50;;;;;16.30;94427.00;;;;7394168;19;20156;-74
2022/08/30 01:27:23;;;;;;;6.95;4.38;;;;;16.20;94433.00;;;;7393976;19;20172;-75
2022/08/30 01:29:51;;;;;;;6.68;4.80;;;;;15.90;94436.00;;;;7398521;19;20216;-73
2022/08/30 01:32:22;;;;;;;5.45;3.83;;;;;15.90;94429.00;;;;7395709;19;20528;-74
2022/08/30 01:34:56;;;;;;;6.15;4.63;;;;;15.60;94442.00;;;;7395454;19;20496;-73
2022/08/30 01:37:30;;;;;;;7.07;4.38;;;;;15.80;94441.00;;;;7398393;19;20169;-74
2022/08/30 01:40:06;;;;;;;10.50;4.53;;;;;15.90;94445.00;;;;7396923;19;20129;-72
2022/08/30 01:42:34;;;;;;;12.85;4.72;;;;;15.80;94444.00;;;;7395186;19;20793;-73
2022/08/30 01:45:02;;;;;;;5.03;4.45;;;;;16.10;94439.00;;;;7396003;19;20177;-73
2022/08/30 01:47:37;;;;;;;7.22;4.43;;;;;16.10;94437.00;;;;7397611;19;20606;-73
2022/08/30 01:50:06;;;;;;;5.57;3.90;;;;;15.90;94434.00;;;;7393790;19;20255;-72
2022/08/30 01:52:33;;;;;;;9.38;4.63;;;;;15.90;94428.00;;;;7394699;19;20180;-73
2022/08/30 01:55:08;;;;;;;7.82;4.80;;;;;15.90;94428.00;;;;7397753;19;20146;-74
2022/08/30 01:57:35;;;;;;;8.23;5.38;;;;;15.80;94426.00;;;;7397241;19;20146;-73
2022/08/30 02:00:06;;;;;;;8.40;5.00;;;;;15.80;94426.00;;;;7396991;19;20584;-73
2022/08/30 02:02:40;;;;;;;6.97;4.60;;;;;15.80;94423.00;;;;7396604;19;20689;-73
2022/08/30 02:05:08;;;;;;;8.68;4.88;;;;;15.80;94420.00;;;;7391376;19;20485;-74
2022/08/30 02:07:35;;;;;;;8.20;4.97;;;;;15.70;94424.00;;;;7395641;19;20176;-72
2022/08/30 02:10:16;;;;;;;11.43;5.55;;;;;15.60;94429.00;;;;7393886;19;20259;-73
2022/08/30 02:12:43;;;;;;;7.55;5.28;;;;;15.60;94427.00;;;;7395803;19;20165;-73
2022/08/30 02:15:17;;;;;;;7.13;5.65;;;;;15.70;94429.00;;;;7396869;19;20134;-72
2022/08/30 02:17:45;;;;;;;5.97;5.20;;;;;15.60;94438.00;;;;7394056;19;20636;-73
2022/08/30 02:20:16;;;;;;;7.93;5.10;;;;;15.70;94426.00;;;;7396330;19;20140;-73
2022/08/30 02:22:50;;;;;;;6.85;5.10;;;;;15.60;94419.00;;;;7397240;19;20588;-74
2022/08/30 02:25:17;;;;;;;7.20;5.18;;;;;15.70;94420.00;;;;7398466;19;20133;-72
2022/08/30 02:27:47;;;;;;;12.10;5.72;;;;;15.60;94415.00;;;;7392149;19;20149;-73
2022/08/30 02:30:21;;;;;;;7.53;5.63;;;;;15.70;94416.00;;;;7395183;19;20140;-73
2022/08/30 02:32:48;;;;;;;6.80;5.68;;;;;15.70;94425.00;;;;7399025;19;20137;-73
2022/08/30 02:35:16;;;;;;;7.80;5.30;;;;;15.60;94427.00;;;;7396784;19;20664;-72
2022/08/30 02:37:50;;;;;;;7.10;5.55;;;;;15.70;94427.00;;;;7394194;19;21056;-73
2022/08/30 02:40:20;;;;;;;7.55;5.57;;;;;15.70;94416.00;;;;7394417;19;20222;-75
2022/08/30 02:42:49;;;;;;;8.07;5.45;;;;;15.80;94409.00;;;;7397156;19;20177;-73
2022/08/30 02:45:24;;;;;;;8.32;6.18;;;;;15.90;94402.00;;;;7393631;19;20132;-74
2022/08/30 02:47:52;;;;;;;8.73;6.20;;;;;15.80;94398.00;;;;7394528;19;20628;-74
2022/08/30 02:50:19;;;;;;;9.00;6.38;;;;;15.80;94396.00;;;;7395248;19;20595;-74
2022/08/30 02:52:53;;;;;;;10.38;7.05;;;;;15.70;94403.00;;;;7395812;19;20124;-74
2022/08/30 02:55:22;;;;;;;7.85;5.85;;;;;15.70;94394.00;;;;7391805;19;20160;-73
2022/08/30 02:57:49;;;;;;;9.98;6.80;;;;;15.80;94393.00;;;;7395974;19;20624;-74
2022/08/30 03:00:23;;;;;;;7.15;5.82;;;;;15.90;94388.00;;;;7392683;19;20219;-73
2022/08/30 03:02:51;;;;;;;7.38;6.25;;;;;16.00;94387.00;;;;7395149;19;20172;-73
2022/08/30 03:05:18;;;;;;;9.05;6.50;;;;;15.90;94391.00;;;;7390982;19;20129;-72
2022/08/30 03:07:59;;;;;;;9.68;6.13;;;;;15.90;94389.00;;;;7394495;19;20620;-73
2022/08/30 03:10:33;;;;;;;8.65;5.93;;;;;15.80;94392.00;;;;7393964;19;20166;-73
2022/08/30 03:13:07;;;;;;;7.65;5.57;;;;;15.60;94386.00;;;;7395136;19;20172;-73
2022/08/30 03:15:36;;;;;;;9.27;6.22;;;;;15.50;94390.00;;;;7397017;19;20129;-75
2022/08/30 03:18:04;;;;;;;7.30;5.78;;;;;15.50;94382.00;;;;7394450;19;20176;-75
2022/08/30 03:20:41;;;;;;;9.77;6.88;;;;;15.60;94385.00;;;;7394952;19;20128;-73
2022/08/30 03:23:12;;;;;;;10.35;6.82;;;;;15.70;94379.00;;;;7394452;19;20178;-73
2022/08/30 03:25:48;;;;;;;11.00;6.15;;;;;15.80;94378.00;;;;7392864;19;20140;-72
2022/08/30 03:28:15;;;;;;;8.50;6.55;;;;;15.60;94376.00;;;;7393720;19;20141;-74
2022/08/30 03:30:43;;;;;;;9.77;6.47;;;;;15.60;94368.00;;;;7391893;19;20148;-73
2022/08/30 03:33:17;;;;;;;10.32;6.35;;;;;15.60;94372.00;;;;7396040;19;20149;-73
2022/08/30 03:35:48;;;;;;;9.20;6.47;;;;;15.50;94381.00;;;;7394733;19;20156;-72
2022/08/30 03:38:16;;;;;;;7.40;6.55;;;;;15.50;94378.00;;;;7392749;19;20588;-75
2022/08/30 03:40:49;;;;;;;11.18;6.40;;;;;15.70;94381.00;;;;7395393;19;20136;-73
2022/08/30 03:43:17;;;;;;;7.97;6.22;;;;;15.50;94377.00;;;;7395601;19;20129;-73
2022/08/30 03:45:45;;;;;;;8.32;6.97;;;;;15.50;94383.00;;;;7391982;19;20124;-73
2022/08/30 03:48:18;;;;;;;12.13;6.47;;;;;15.50;94376.00;;;;7393522;19;20215;-73
2022/08/30 03:50:48;;;;;;;10.50;6.97;;;;;15.60;94383.00;;;;7393846;19;20135;-72
2022/08/30 03:53:15;;;;;;;8.93;6.97;;;;;15.70;94374.00;;;;7393887;19;20169;-73
2022/08/30 03:55:53;;;;;;;7.35;6.28;;;;;15.70;94371.00;;;;7392491;19;20152;-72
2022/08/30 03:58:21;;;;;;;8.27;6.95;;;;;15.80;94370.00;;;;7394184;19;20125;-74
2022/08/30 04:00:49;;;;;;;11.70;6.68;;;;;15.90;94375.00;;;;7390188;19;21114;-72
2022/08/30 04:03:24;;;;;;;10.48;6.75;;;;;15.90;94379.00;;;;7388578;19;20148;-73
2022/08/30 04:05:53;;;;;;;8.15;6.00;;;;;15.90;94372.00;;;;7391214;19;20468;-73
2022/08/30 04:08:21;;;;;;;11.35;6.70;;;;;15.90;94381.00;;;;7386859;19;20248;-75
2022/08/30 04:10:56;;;;;;;9.68;6.32;;;;;16.00;94377.00;;;;7392038;19;20156;-72
2022/08/30 04:13:24;;;;;;;7.53;6.07;;;;;15.90;94382.00;;;;7392443;19;20150;-73
2022/08/30 04:15:51;;;;;;;7.32;6.43;;;;;15.80;94392.00;;;;7391269;19;20161;-72
2022/08/30 04:18:25;;;;;;;8.02;6.70;;;;;15.80;94388.00;;;;7393248;19;20136;-74
2022/08/30 04:20:53;;;;;;;7.25;6.50;;;;;15.80;94383.00;;;;7391689;19;20528;-73
2022/08/30 04:23:20;;;;;;;8.30;6.53;;;;;15.70;94384.00;;;;7393088;19;20148;-73
2022/08/30 04:25:55;;;;;;;10.55;7.10;;;;;15.90;94388.00;;;;7389579;19;20220;-73
2022/08/30 04:28:23;;;;;;;9.88;7.15;;;;;15.90;94384.00;;;;7389057;19;20133;-75
2022/08/30 04:30:51;;;;;;;10.63;7.43;;;;;16.00;94377.00;;;;7389395;19;20140;-72
2022/08/30 04:33:24;;;;;;;7.50;6.75;;;;;15.90;94384.00;;;;7398193;19;20537;-74
2022/08/30 04:35:51;;;;;;;9.55;7.38;;;;;15.90;94380.00;;;;7400011;19;20503;-75
2022/08/30 04:38:20;;;;;;;10.85;7.28;;;;;15.90;94387.00;;;;7394248;19;20639;-75
2022/08/30 04:40:56;;;;;;;8.73;6.75;;;;;15.90;94387.00;;;;7399329;19;20199;-74
2022/08/30 04:43:27;;;;;;;8.75;7.10;;;;;16.10;94393.00;;;;7396074;19;20140;-74
2022/08/30 04:45:55;;;;;;;10.60;6.25;;;;;16.00;94393.00;;;;7396195;19;20502;-75
2022/08/30 04:48:29;;;;;;;8.90;6.57;;;;;16.10;94399.00;;;;7401782;19;20136;-73
2022/08/30 04:50:57;;;;;;;7.78;6.50;;;;;16.30;94402.00;;;;7398633;19;20220;-73
2022/08/30 04:53:24;;;;;;;8.02;6.18;;;;;16.30;94398.00;;;;7396720;19;20156;-74
2022/08/30 04:55:58;;;;;;;6.72;5.70;;;;;16.40;94402.00;;;;7398904;19;20180;-73
2022/08/30 04:58:26;;;;;;;10.30;6.35;;;;;16.60;94402.00;;;;7397566;19;20464;-74
2022/08/30 05:00:54;;;;;;;7.07;5.75;;;;;16.60;94408.00;;;;7397199;19;20233;-74
2022/08/30 05:03:28;;;;;;;7.30;6.15;;;;;16.60;94408.00;;;;7399048;19;20618;-73
2022/08/30 05:05:56;;;;;;;8.85;6.72;;;;;16.70;94406.00;;;;7395843;19;20216;-73
2022/08/30 05:08:23;;;;;;;9.00;6.55;;;;;16.80;94409.00;;;;7394523;19;20647;-74
2022/08/30 05:10:57;;;;;;;7.78;6.22;;;;;17.00;94411.00;;;;7397307;19;20611;-74
2022/08/30 05:13:25;;;;;;;11.70;5.97;;;;;17.10;94410.00;;;;7397306;19;20277;-72
2022/08/30 05:16:04;;;;;;;9.38;6.70;;;;;17.20;94403.00;;;;7396969;19;20632;-73
2022/08/30 05:18:38;;;;;;;10.05;6.43;;;;;17.30;94403.00;;;;7397525;19;20648;-73
2022/08/30 05:21:18;;;;;;;9.52;6.55;;;;;17.40;94403.00;;;;7398627;19;20648;-73
2022/08/30 05:23:54;;;;;;;7.72;6.75;;;;;17.50;94405.00;;;;7398255;19;20484;-73
2022/08/30 05:26:31;;;;;;;11.05;6.07;;;;;17.60;94406.00;;;;7394081;19;20157;-73
2022/08/30 05:29:04;;;;;;;7.07;6.32;;;;;17.70;94400.00;;;;7396484;19;20196;-73
2022/08/30 05:31:34;;;;;;;7.80;6.13;;;;;17.80;94402.00;;;;7395944;19;20156;-73
2022/08/30 05:34:02;;;;;;;8.50;6.75;;;;;17.90;94405.00;;;;7394444;19;20142;-73
2022/08/30 05:36:37;;;;;;;8.02;6.32;;;;;18.10;94396.00;;;;7397006;19;20228;-74
2022/08/30 05:39:09;;;;;;;7.55;6.60;;;;;18.30;94400.00;;;;7397914;19;20137;-74
2022/08/30 05:41:47;;;;;;;8.07;6.32;;;;;18.30;94411.00;;;;7395795;19;20153;-73
2022/08/30 05:44:16;;;;;;;11.80;6.65;;;;;18.40;94411.00;;;;7397312;19;20225;-73
2022/08/30 05:46:52;;;;;;;8.32;6.05;;;;;18.50;94422.00;;;;7397853;19;20177;-73
2022/08/30 05:49:19;;;;;;;8.70;6.05;;;;;18.50;94425.00;;;;7397266;19;20188;-73
2022/08/30 05:51:47;;;;;;;7.10;5.97;;;;;18.50;94423.00;;;;7396357;19;20140;-73
2022/08/30 05:54:21;;;;;;;7.57;5.82;;;;;18.50;94420.00;;;;7398497;19;20136;-73
2022/08/30 05:56:49;;;;;;;7.82;6.15;;;;;18.50;94427.00;;;;7397013;19;20133;-74
2022/08/30 05:59:16;;;;;;;7.28;5.82;;;;;18.50;94416.00;;;;7397852;19;20568;-73
2022/08/30 06:02:06;;;;;;;6.80;5.97;;;;;18.40;94416.00;;;;7389233;19;20152;-74
2022/08/30 06:04:40;;;;;;;7.78;6.18;;;;;18.60;94410.00;;;;7397298;19;20133;-73
2022/08/30 06:07:22;;;;;;;6.65;5.60;;;;;18.90;94402.00;;;;7396219;19;20159;-74
2022/08/30 06:10:03;;;;;;;8.68;6.03;;;;;19.00;94408.00;;;;7394957;19;20156;-74
2022/08/30 06:12:36;;;;;;;12.18;6.65;;;;;19.20;94403.00;;;;7395603;19;20160;-73
2022/08/30 06:15:05;;;;;;;7.60;5.72;;;;;19.40;94405.00;;;;7397968;19;20514;-73
2022/08/30 06:17:34;;;;;;;12.88;6.18;;;;;19.40;94409.00;;;;7394719;19;20158;-74
2022/08/30 06:20:09;;;;;;;8.20;6.30;;;;;19.40;94408.00;;;;7396702;19;20180;-73
2022/08/30 06:22:42;;;;;;;6.47;5.78;;;;;19.40;94413.00;;;;7393860;19;20125;-74
2022/08/30 06:25:17;;;;;;;8.00;5.88;;;;;19.50;94416.00;;;;7396197;19;20144;-74
2022/08/30 06:27:49;;;;;;;7.25;5.60;;;;;19.30;94414.00;;;;7396158;19;20163;-73
2022/08/30 06:30:23;;;;;;;8.32;5.70;;;;;19.20;94418.00;;;;7392970;19;20144;-74
2022/08/30 06:32:51;;;;;;;6.07;5.20;;;;;19.10;94413.00;;;;7393413;19;20157;-74
2022/08/30 06:35:35;;;;;;;8.63;6.00;;;;;19.20;94415.00;;;;7392899;19;20643;-74
2022/08/30 06:38:28;;;;;;;7.00;5.43;;;;;19.60;94412.00;;;;7396281;19;20132;-74
2022/08/30 06:41:06;;;;;;;10.00;5.70;;;;;19.80;94408.00;;;;7395089;19;20584;-75
2022/08/30 06:43:44;;;;;;;10.07;6.03;;;;;19.80;94405.00;;;;7395312;19;20142;-74
2022/08/30 06:46:21;;;;;;;9.65;5.65;;;;;20.00;94410.00;;;;7392496;19;20559;-74
2022/08/30 06:48:56;;;;;;;9.18;5.72;;;;;20.10;94411.00;;;;7396151;19;20136;-73
2022/08/30 06:51:30;;;;;;;8.07;5.75;;;;;20.40;94421.00;;;;7392627;19;20616;-74
2022/08/30 06:54:09;;;;;;;5.85;5.25;;;;;20.40;94419.00;;;;7392272;19;20494;-75
2022/08/30 06:56:39;;;;;;;10.07;5.93;;;;;20.30;94428.00;;;;7394688;19;20183;-74
2022/08/30 06:59:30;;;;;;;6.47;5.05;;;;;20.30;94429.00;;;;7396008;19;20584;-74
2022/08/30 07:01:58;;;;;;;6.75;5.85;;;;;20.30;94426.00;;;;7392313;19;20592;-74
2022/08/30 07:04:32;;;;;;;6.30;5.70;;;;;20.60;94419.00;;;;7393550;19;20619;-75
2022/08/30 07:06:59;;;;;;;6.18;5.57;;;;;21.10;94413.00;;;;7393451;19;20192;-75
2022/08/30 07:09:34;;;;;;;7.82;6.25;;;;;21.50;94423.00;;;;7392466;19;20156;-74
2022/08/30 07:12:12;;;;;;;6.35;5.68;;;;;21.90;94419.00;;;;7391553;19;20144;-74
2022/08/30 07:14:41;;;;;;;7.10;5.93;;;;;22.30;94414.00;;;;7396758;19;20153;-75
2022/08/30 07:20:03;;;;;;;6.60;5.03;;;;;22.70;94416.00;;;;7392776;19;20501;-73
2022/08/30 07:22:37;;;;;;;7.35;4.95;;;;;22.70;94414.00;;;;7392659;19;20160;-75
2022/08/30 07:25:05;;;;;;;7.10;5.40;;;;;22.70;94422.00;;;;7394101;19;20178;-75
2022/08/30 07:27:33;;;;;;;5.30;4.80;;;;;22.70;94410.00;;;;7395402;19;20467;-75
2022/08/30 07:30:08;;;;;;;8.50;5.05;;;;;22.80;94420.00;;;;7390565;19;20152;-74
2022/08/30 07:32:37;;;;;;;8.35;5.25;;;;;22.90;94419.00;;;;7393737;19;20524;-75
2022/08/30 07:35:05;;;;;;;6.10;5.50;;;;;23.00;94422.00;;;;7392823;19;20629;-74
2022/08/30 07:37:38;;;;;;;7.15;4.72;;;;;23.30;94433.00;;;;7391681;19;21246;-74
2022/08/30 07:40:08;;;;;;;8.93;5.00;;;;;23.50;94424.00;;;;7391974;19;20152;-75
2022/08/30 07:42:35;;;;;;;7.68;5.85;;;;;23.70;94429.00;;;;7393537;19;20143;-75
2022/08/30 07:45:10;;;;;;;7.13;5.57;;;;;23.90;94421.00;;;;7392450;19;20150;-75
2022/08/30 07:47:38;;;;;;;10.68;5.20;;;;;23.90;94435.00;;;;7392279;19;20153;-75
2022/08/30 07:50:06;;;;;;;8.07;5.20;;;;;23.70;94427.00;;;;7390837;19;20180;-75
2022/08/30 07:52:40;;;;;;;7.18;5.18;;;;;24.00;94423.00;;;;7391271;19;20457;-75
2022/08/30 07:55:08;;;;;;;7.57;5.05;;;;;24.30;94425.00;;;;7392517;19;20149;-73
2022/08/30 07:57:36;;;;;;;6.35;5.50;;;;;24.60;94424.00;;;;7391396;19;20802;-72
2022/08/30 08:00:13;;;;;;;5.70;5.20;;;;;24.60;94419.00;;;;7391239;19;20170;-74
2022/08/30 08:02:41;;;;;;;5.93;4.85;;;;;24.50;94417.00;;;;7391356;19;20144;-75
2022/08/30 08:05:13;;;;;;;6.47;5.32;;;;;24.60;94419.00;;;;7391279;19;20156;-76
2022/08/30 08:07:57;;;;;;;7.80;5.45;;;;;25.00;94425.00;;;;7389144;19;20212;-73
2022/08/30 08:10:32;;;;;;;5.45;4.95;;;;;24.80;94424.00;;;;7390344;19;20137;-73
2022/08/30 08:13:06;;;;;;;9.00;5.70;;;;;24.90;94420.00;;;;7393059;19;20144;-74
2022/08/30 08:15:33;;;;;;;5.50;4.97;;;;;24.90;94429.00;;;;7390399;19;20621;-74
2022/08/30 08:18:01;;;;;;;5.82;4.43;;;;;24.90;94429.00;;;;7390554;19;20140;-76
2022/08/30 08:20:36;;;;;;;7.10;4.88;;;;;25.20;94425.00;;;;7389390;19;21985;-73
2022/08/30 08:23:04;;;;;;;7.57;5.88;;;;;24.90;94426.00;;;;7392600;19;20160;-73
2022/08/30 08:25:34;;;;;;;6.65;5.50;;;;;24.90;94433.00;;;;7389118;19;20495;-75
2022/08/30 08:28:09;;;;;;;6.78;5.93;;;;;24.80;94434.00;;;;7391131;19;20128;-75
2022/08/30 08:30:37;;;;;;;7.55;5.40;;;;;24.90;94438.00;;;;7391942;19;20631;-74
2022/08/30 08:33:05;;;;;;;5.85;5.10;;;;;24.80;94441.00;;;;7393514;19;20159;-73
2022/08/30 08:35:39;;;;;;;7.07;5.60;;;;;24.80;94442.00;;;;7387925;19;20168;-74
2022/08/30 08:38:07;;;;;;;7.35;5.35;;;;;24.70;94434.00;;;;7391453;19;20132;-75
2022/08/30 08:40:44;;;;;;;6.30;5.25;;;;;24.90;94436.00;;;;7390386;19;20228;-75
2022/08/30 08:43:24;;;;;;;6.60;5.50;;;;;25.10;94436.00;;;;7388256;19;20140;-74
2022/08/30 08:46:29;;;;;;;8.13;4.97;;;;;25.20;94441.00;;;;7388417;19;20148;-75
2022/08/30 08:49:07;;;;;;;7.75;5.57;;;;;25.50;94432.00;;;;7390989;19;20516;-73
2022/08/30 08:54:55;;;;;;;8.00;5.60;;;;;25.50;94433.00;;;;7390437;19;20174;-74
2022/08/30 08:57:30;;;;;;;5.53;5.00;;;;;25.60;94422.00;;;;7390566;19;20137;-74
2022/08/30 09:00:07;;;;;;;7.82;4.72;;;;;26.20;94425.00;;;;7394169;19;20141;-74
2022/08/30 09:03:01;;;;;;;7.38;4.93;;;;;26.30;94432.00;;;;7387824;19;20236;-75
2022/08/30 09:05:39;;;;;;;6.22;4.82;;;;;26.60;94424.00;;;;7387476;19;20157;-73
2022/08/30 09:08:20;;;;;;;5.93;5.18;;;;;26.70;94424.00;;;;7392265;19;20152;-73
2022/08/30 09:11:05;;;;;;;6.57;5.38;;;;;26.90;94420.00;;;;7390437;19;20556;-74
2022/08/30 09:13:32;;;;;;;5.20;4.70;;;;;27.20;94415.00;;;;7390172;19;20522;-74
2022/08/30 09:16:06;;;;;;;6.60;5.15;;;;;27.10;94422.00;;;;7387536;19;20177;-74
2022/08/30 09:18:46;;;;;;;7.18;5.28;;;;;27.00;94419.00;;;;7396150;19;20266;-77
2022/08/30 09:21:25;;;;;;;5.65;4.70;;;;;27.00;94410.00;;;;7399132;19;20136;-74
2022/08/30 09:24:00;;;;;;;5.30;4.80;;;;;27.20;94417.00;;;;7398045;19;20587;-72
2022/08/30 09:26:38;;;;;;;5.65;5.13;;;;;27.00;94414.00;;;;7395393;19;20579;-74
2022/08/30 09:29:16;;;;;;;9.38;5.18;;;;;26.70;94417.00;;;;7393233;19;20201;-74
2022/08/30 09:31:53;;;;;;;5.88;4.82;;;;;27.10;94413.00;;;;7395494;19;20604;-76
2022/08/30 09:34:43;;;;;;;5.18;4.32;;;;;27.20;94406.00;;;;7398970;19;20137;-76
2022/08/30 09:37:53;;;;;;;7.53;4.13;;;;;27.40;94402.00;;;;7396418;19;20176;-75
2022/08/30 09:40:33;;;;;;;6.28;4.78;;;;;27.60;94400.00;;;;7396005;19;20136;-75
2022/08/30 09:43:33;;;;;;;4.95;4.40;;;;;27.70;94403.00;;;;7394428;19;20714;-75
2022/08/30 09:46:07;;;;;;;6.07;4.60;;;;;27.60;94398.00;;;;7381928;19;20804;-76
2022/08/30 09:48:44;;;;;;;6.05;4.80;;;;;27.50;94398.00;;;;7384936;19;20125;-75
2022/08/30 09:51:12;;;;;;;5.28;4.57;;;;;27.70;94395.00;;;;7390600;19;20722;-75
2022/08/30 09:53:45;;;;;;;6.82;4.43;;;;;28.00;94396.00;;;;7390238;19;20149;-75
2022/08/30 09:56:43;;;;;;;6.40;4.25;;;;;28.10;94393.00;;;;7391511;19;20159;-74
2022/08/30 09:59:20;;;;;;;6.43;4.57;;;;;28.30;94392.00;;;;7395323;19;20149;-73
2022/08/30 10:02:09;;;;;;;4.78;4.28;;;;;28.60;94377.00;;;;7395270;19;20611;-73
2022/08/30 10:04:47;;;;;;;5.50;4.80;;;;;28.70;94396.00;;;;7394892;19;20156;-74
2022/08/30 10:07:33;;;;;;;7.38;4.05;;;;;28.90;94386.00;;;;7392837;19;20176;-73
2022/08/30 10:10:29;;;;;;;7.00;4.25;;;;;28.90;94385.00;;;;7393883;19;20141;-73
2022/08/30 10:13:24;;;;;;;4.70;4.20;;;;;28.40;94383.00;;;;7388350;19;20338;-74
2022/08/30 10:16:08;;;;;;;16.75;4.38;;;;;28.70;94393.00;;;;7390276;19;20265;-76
2022/08/30 10:19:09;;;;;;;6.63;4.57;;;;;28.10;94397.00;;;;7389959;19;20932;-74
2022/08/30 10:21:46;;;;;;;4.82;4.15;;;;;27.10;94399.00;;;;7389662;19;20139;-73
2022/08/30 10:24:27;;;;;;;5.68;3.78;;;;;27.60;94379.00;;;;7392055;19;20139;-76
2022/08/30 10:27:11;;;;;;;4.65;4.10;;;;;28.80;94365.00;;;;7393245;19;20147;-74
2022/08/30 10:29:52;;;;;;;6.50;4.00;;;;;28.90;94363.00;;;;7390362;19;20177;-74
2022/08/30 10:32:28;;;;;;;4.65;3.80;;;;;28.90;94358.00;;;;7393562;19;20140;-74
2022/08/30 10:35:10;;;;;;;6.65;4.25;;;;;29.40;94361.00;;;;7392543;19;20177;-73
2022/08/30 10:38:04;;;;;;;5.93;4.00;;;;;29.10;94358.00;;;;7394956;19;20143;-73
2022/08/30 10:44:00;;;;;;;6.10;3.65;;;;;29.70;94365.00;;;;7392067;19;20143;-74
2022/08/30 10:47:18;;;;;;;5.68;3.47;;;;;29.90;94365.00;;;;7393359;19;20145;-75
2022/08/30 10:49:56;;;;;;;6.22;4.00;;;;;28.80;94373.00;;;;7390236;19;20164;-72
2022/08/30 10:52:56;;;;;;;6.07;3.88;;;;;27.80;94381.00;;;;7393605;19;20658;-74
2022/08/30 10:55:43;;;;;;;7.47;3.70;;;;;27.40;94390.00;;;;7393821;19;20188;-75
2022/08/30 10:58:18;;;;;;;5.57;4.25;;;;;26.80;94372.00;;;;7391007;19;20464;-73
2022/08/30 11:01:19;;;;;;;4.95;4.10;;;;;27.40;94376.00;;;;7391399;19;20622;-73
2022/08/30 11:04:21;;;;;;;6.40;4.15;;;;;27.80;94377.00;;;;7391240;19;20661;-75
2022/08/30 11:07:27;;;;;;;5.43;3.88;;;;;28.00;94371.00;;;;7392440;19;20145;-73
2022/08/30 11:10:26;;;;;;;5.25;4.50;;;;;28.20;94377.00;;;;7394411;19;20504;-73
2022/08/30 11:13:18;;;;;;;6.68;4.53;;;;;28.60;94371.00;;;;7395291;19;20165;-75
2022/08/30 11:16:14;;;;;;;6.70;4.13;;;;;28.90;94366.00;;;;7390883;19;20220;-74
2022/08/30 11:18:50;;;;;;;6.38;4.18;;;;;29.00;94365.00;;;;7392387;19;20475;-74
2022/08/30 11:21:40;;;;;;;12.93;3.92;;;;;29.10;94363.00;;;;7391516;19;20639;-76
2022/08/30 11:24:20;;;;;;;6.53;4.40;;;;;28.40;94374.00;;;;7393612;19;20133;-75
2022/08/30 11:26:59;;;;;;;5.10;4.05;;;;;28.40;94370.00;;;;7389563;19;20500;-74
2022/08/30 11:29:42;;;;;;;8.18;4.57;;;;;28.60;94374.00;;;;7388442;19;20146;-74
2022/08/30 11:32:23;;;;;;;5.35;4.32;;;;;28.90;94371.00;;;;7390401;19;20600;-74
2022/08/30 11:34:56;;;;;;;6.85;4.40;;;;;28.80;94374.00;;;;7390294;19;20483;-73
2022/08/30 11:37:46;;;;;;;5.10;3.63;;;;;29.00;94369.00;;;;7390766;19;20132;-74
2022/08/30 11:40:21;;;;;;;6.00;4.20;;;;;28.90;94375.00;;;;7389102;19;20136;-73
2022/08/30 11:42:56;;;;;;;4.47;4.00;;;;;28.40;94377.00;;;;7386527;19;20151;-75
2022/08/30 11:45:42;;;;;;;7.32;3.65;;;;;28.40;94376.00;;;;7391506;19;20151;-73
2022/08/30 11:49:04;;;;;;;7.35;4.25;;;;;28.60;94377.00;;;;7388024;19;20606;-75
2022/08/30 11:52:07;;;;;;;6.00;4.10;;;;;28.60;94378.00;;;;7390413;19;20165;-74
2022/08/30 11:55:21;;;;;;;5.22;4.15;;;;;29.10;94381.00;;;;7389281;19;20160;-75
2022/08/30 11:58:10;;;;;;;4.30;3.90;;;;;28.60;94379.00;;;;7394222;19;20141;-75
2022/08/30 12:00:46;;;;;;;5.03;3.95;;;;;28.40;94373.00;;;;7383812;19;20159;-74
2022/08/30 12:03:21;;;;;;;4.15;3.78;;;;;28.40;94376.00;;;;7388882;19;20239;-72
2022/08/30 12:06:00;;;;;;;6.57;4.60;;;;;28.20;94372.00;;;;7388209;19;20152;-73
2022/08/30 12:08:46;;;;;;;4.38;3.97;;;;;28.70;94368.00;;;;7386704;19;20208;-76
2022/08/30 12:11:32;;;;;;;4.47;4.00;;;;;29.70;94358.00;;;;7390927;19;20167;-74
2022/08/30 12:14:01;;;;;;;4.68;4.22;;;;;30.40;94355.00;;;;7387419;19;20152;-75
2022/08/30 12:19:33;;;;;;;4.40;3.92;;;;;30.20;94362.00;;;;7393199;19;20152;-74
2022/08/30 12:22:14;;;;;;;5.10;3.75;;;;;30.60;94356.00;;;;7389366;19;21756;-72
2022/08/30 12:24:47;;;;;;;6.75;4.57;;;;;30.90;94352.00;;;;7390688;19;20627;-73
2022/08/30 12:27:29;;;;;;;4.90;4.50;;;;;29.90;94358.00;;;;7389283;19;20148;-72
2022/08/30 12:30:04;;;;;;;7.32;3.80;;;;;28.80;94364.00;;;;7390831;19;20737;-75
2022/08/30 12:32:49;;;;;;;4.95;4.32;;;;;28.90;94358.00;;;;7387735;19;20139;-74
2022/08/30 12:35:22;;;;;;;4.78;4.28;;;;;28.70;94355.00;;;;7387601;19;20140;-74
2022/08/30 12:38:03;;;;;;;5.05;4.40;;;;;29.10;94360.00;;;;7384984;19;20129;-75
2022/08/30 12:40:33;;;;;;;8.90;4.25;;;;;28.60;94356.00;;;;7389750;19;20153;-75
2022/08/30 12:43:34;;;;;;;5.97;4.32;;;;;28.30;94357.00;;;;7392537;19;20141;-75
2022/08/30 12:46:11;;;;;;;7.35;4.13;;;;;28.10;94354.00;;;;7391111;19;20166;-73
2022/08/30 12:48:48;;;;;;;5.78;4.07;;;;;28.10;94344.00;;;;7386189;19;20227;-74
2022/08/30 12:51:36;;;;;;;9.98;4.32;;;;;29.20;94338.00;;;;7391357;19;20144;-73
2022/08/30 12:54:27;;;;;;;7.70;4.10;;;;;29.10;94337.00;;;;7396531;19;20125;-74
2022/08/30 12:56:59;;;;;;;6.18;4.20;;;;;28.70;94342.00;;;;7396783;19;20162;-76
2022/08/30 12:59:55;;;;;;;4.85;4.05;;;;;28.90;94343.00;;;;7395136;19;20133;-73
2022/08/30 13:02:43;;;;;;;8.98;4.60;;;;;28.90;94338.00;;;;7392524;19;20147;-74
2022/08/30 13:05:34;;;;;;;5.45;4.28;;;;;28.70;94340.00;;;;7395314;19;20152;-73
2022/08/30 13:08:29;;;;;;;4.65;4.20;;;;;28.60;94333.00;;;;7392984;19;20240;-73
2022/08/30 13:11:18;;;;;;;5.68;4.30;;;;;28.90;94336.00;;;;7398172;19;20157;-74